Flugplatz - Wetter - Augsburg

[Quelle: ADDS]
METAR
EDMA 220950Z 22005KT 180V280 CAVOK 27/17 Q1025 =
EDMA 220800Z 2209/2218 VRB03KT CAVOK BECMG 2210/2212 30005KT
TAF
EDMA 220800Z 2209/2218 VRB03KT CAVOK BECMG 2210/2212 30005KT =
SR / SS: 03:40 / 19:08 UTC (Augsburg 2019-07-22)

Flugplatz - Wetter - Laupheim

[Quelle: ADDS]
METAR
ETHL 220920Z 21004KT 9999 FEW038 BKN360 25/15 Q1026 BLU+BLU+ =
ETHL 220716Z 2208/2217 25005KT 9999 NSW FEW060 BKN350
TAF
ETHL 220716Z 2208/2217 25005KT 9999 NSW FEW060 BKN350 =
SR / SS: 03:44 / 19:11 UTC (Laupheim 2019-07-22)

Flugplatz - Wetter - Memmingen

[Quelle: ADDS]
METAR
EDJA 220950Z VRB03KT 9999 FEW048 25/16 Q1026 =
EDJA 220800Z 2209/2218 25005KT CAVOK BECMG 2213/2216 36004KT
TAF
EDJA 220800Z 2209/2218 25005KT CAVOK BECMG 2213/2216 36004KT =
SR / SS: 03:44 / 19:07 UTC (Memmingen 2019-07-22)

Flugplatz - Wetter - Neuburg/Donau

[Quelle: ADDS]
METAR
ETSN 220920Z 20005KT 9999 FEW050 SCT180 BKN330 26/14 Q1025 BLU+BLU+ =
ETSN 220720Z 2208/2217 25005KT 9999 NSW BKN300 BY ETGL
TAF
ETSN 220720Z 2208/2217 25005KT 9999 NSW BKN300 BY ETGL =
SR / SS: 03:37 / 19:06 UTC (Neuburg 2019-07-22)

Flugplatz - Wetter - Stuttgart

[Quelle: ADDS]
METAR
EDDS 220950Z 31004KT 230V020 CAVOK 27/15 Q1025 NOSIG =
EDDS 220500Z 2206/2306 VRB03KT CAVOK BECMG 2210/2213 36005KT BECMG 2219/2221 VRB03KT
TAF
EDDS 220500Z 2206/2306 VRB03KT CAVOK BECMG 2210/2213 36005KT BECMG 2219/2221 VRB03KT =
SR / SS: 03:45 / 19:14 UTC (Stuttgart 2019-07-22)

Flugplatz - Wetter - Niederstetten

[Quelle: ADDS]
METAR
ETHN 220920Z 28009KT 9999 FEW050 BKN360 25/11 Q1025 BLU+BLU+ =
ETHN 220700Z 2208/2217 28005KT 9999 NSW BKN300
TAF
ETHN 220700Z 2208/2217 28005KT 9999 NSW BKN300 =
SR / SS: 03:40 / 19:15 UTC (Niederstetten 2019-07-22)